Time;durP1;ratioP1;P1;durP2;ratioP2;P2;SDS_P1;SDS_P2;PMS_P1;PMS_P2;Temp;Humidity;BMP_temperature;BMP_pressure;BME280_temperature;BME280_humidity;BME280_pressure;Samples;Min_cycle;Max_cycle;Signal;HPM_P1;HPM_P2
2022/11/29 00:00:59;;;;;;;29.90;17.80;;;8.60;99.90;;;;;;5072043;28;20669;-79
2022/11/29 00:03:26;;;;;;;34.40;18.60;;;8.60;99.90;;;;;;5073642;28;20181;-78
2022/11/29 00:05:52;;;;;;;35.80;17.27;;;8.60;99.90;;;;;;5072311;28;20279;-78
2022/11/29 00:08:22;;;;;;;33.37;18.77;;;8.70;99.90;;;;;;5073669;28;20253;-79
2022/11/29 00:10:47;;;;;;;22.43;16.63;;;8.70;99.90;;;;;;5073735;28;20195;-78
2022/11/29 00:13:13;;;;;;;32.60;17.23;;;8.70;99.90;;;;;;5072337;28;20185;-79
2022/11/29 00:15:39;;;;;;;28.87;19.20;;;8.60;99.90;;;;;;5073410;28;20267;-79
2022/11/29 00:18:06;;;;;;;39.87;18.50;;;8.70;99.90;;;;;;5072226;28;20182;-78
2022/11/29 00:20:33;;;;;;;28.87;18.17;;;8.60;99.90;;;;;;5088564;28;20251;-79
2022/11/29 00:22:59;;;;;;;39.07;19.77;;;8.70;99.90;;;;;;5071953;28;20214;-79
2022/11/29 00:25:25;;;;;;;38.33;21.13;;;8.60;99.90;;;;;;5073929;28;20647;-79
2022/11/29 00:27:51;;;;;;;38.13;21.57;;;8.70;99.90;;;;;;5071913;28;20207;-79
2022/11/29 00:30:18;;;;;;;35.77;19.87;;;8.70;99.90;;;;;;5071866;28;20683;-79
2022/11/29 00:32:43;;;;;;;34.60;20.20;;;8.70;99.90;;;;;;5073123;28;20179;-79
2022/11/29 00:35:09;;;;;;;35.67;20.83;;;8.70;99.90;;;;;;5073739;28;20591;-79
2022/11/29 00:37:35;;;;;;;39.50;21.57;;;8.70;99.90;;;;;;5073529;28;20629;-78
2022/11/29 00:40:00;;;;;;;41.17;22.40;;;8.70;99.90;;;;;;5073028;28;20191;-79
2022/11/29 00:42:26;;;;;;;44.10;23.40;;;8.70;99.90;;;;;;5071688;28;20187;-79
2022/11/29 00:44:51;;;;;;;41.97;21.40;;;8.70;99.90;;;;;;5072687;28;20206;-79
2022/11/29 00:47:17;;;;;;;38.37;22.77;;;8.70;99.90;;;;;;5088320;28;20199;-78
2022/11/29 00:49:42;;;;;;;40.70;22.10;;;8.70;99.90;;;;;;5088641;28;20202;-79
2022/11/29 00:52:08;;;;;;;41.30;22.60;;;8.70;99.90;;;;;;5088533;28;20182;-78
2022/11/29 00:54:33;;;;;;;51.57;24.57;;;8.70;99.90;;;;;;5088573;28;20697;-78
2022/11/29 00:56:59;;;;;;;43.83;22.17;;;8.70;99.90;;;;;;5071989;28;20522;-79
2022/11/29 00:59:24;;;;;;;51.03;24.90;;;8.70;99.90;;;;;;5088942;28;20206;-78
2022/11/29 01:01:50;;;;;;;51.37;25.10;;;8.70;99.90;;;;;;5088414;28;20175;-79
2022/11/29 01:04:16;;;;;;;46.90;24.53;;;8.70;99.90;;;;;;5071750;28;20187;-79
2022/11/29 01:06:41;;;;;;;55.40;25.00;;;8.80;99.90;;;;;;5073186;28;20260;-79
2022/11/29 01:11:38;;;;;;;47.17;24.23;;;8.70;99.90;;;;;;5061003;23;20578;-79
2022/11/29 01:14:03;;;;;;;45.73;24.47;;;8.70;99.90;;;;;;5038493;28;20188;-78
2022/11/29 01:16:31;;;;;;;50.90;26.53;;;8.80;99.90;;;;;;5037123;28;20184;-78
2022/11/29 01:18:57;;;;;;;54.17;25.07;;;8.70;99.90;;;;;;5037935;28;20672;-79
2022/11/29 01:21:23;;;;;;;45.63;24.03;;;8.80;99.90;;;;;;5056002;28;20278;-78
2022/11/29 01:23:50;;;;;;;53.97;25.67;;;8.70;99.90;;;;;;5058741;28;20179;-79
2022/11/29 01:26:22;;;;;;;44.97;24.50;;;8.70;99.90;;;;;;5058045;28;20188;-79
2022/11/29 01:28:50;;;;;;;58.77;25.63;;;8.80;99.90;;;;;;5057248;28;20185;-79
2022/11/29 01:31:28;;;;;;;46.30;22.83;;;8.70;99.90;;;;;;5056909;28;20196;-78
2022/11/29 01:33:56;;;;;;;49.67;24.13;;;8.80;99.90;;;;;;5058960;28;20637;-79
2022/11/29 01:36:23;;;;;;;48.97;25.17;;;8.80;99.90;;;;;;5059349;28;20654;-79
2022/11/29 01:38:48;;;;;;;48.03;23.13;;;8.80;99.90;;;;;;5058909;28;20213;-79
2022/11/29 01:41:23;;;;;;;53.77;25.13;;;8.80;99.90;;;;;;5056971;28;20207;-79
2022/11/29 01:44:10;;;;;;;42.90;22.30;;;8.80;99.90;;;;;;5058218;28;20174;-79
2022/11/29 01:46:38;;;;;;;48.70;23.87;;;8.80;99.90;;;;;;5059678;28;20195;-78
2022/11/29 01:49:18;;;;;;;44.90;23.40;;;8.80;99.90;;;;;;5059383;28;20538;-79
2022/11/29 01:51:51;;;;;;;44.73;23.40;;;8.80;99.90;;;;;;5059745;28;20171;-78
2022/11/29 01:54:17;;;;;;;56.43;24.43;;;8.80;99.90;;;;;;5058410;28;20630;-79
2022/11/29 01:56:46;;;;;;;49.33;24.80;;;8.80;99.90;;;;;;5061844;28;20187;-78
2022/11/29 01:59:15;;;;;;;52.77;25.40;;;8.80;99.90;;;;;;5059193;28;20175;-79
2022/11/29 02:01:41;;;;;;;46.37;24.83;;;8.80;99.90;;;;;;5058173;28;20179;-78
2022/11/29 02:04:07;;;;;;;55.37;25.37;;;8.80;99.90;;;;;;5056496;28;20329;-79
2022/11/29 02:06:34;;;;;;;58.83;26.13;;;8.80;99.90;;;;;;5057775;28;20294;-79
2022/11/29 02:09:00;;;;;;;53.33;25.53;;;8.80;99.90;;;;;;5057091;28;20258;-79
2022/11/29 02:11:44;;;;;;;52.27;25.97;;;8.80;99.90;;;;;;5056066;28;20581;-79
2022/11/29 02:14:31;;;;;;;59.53;26.60;;;8.80;99.90;;;;;;5057803;28;20180;-79
2022/11/29 02:17:09;;;;;;;62.07;27.07;;;8.80;99.90;;;;;;5057564;28;20253;-79
2022/11/29 02:19:53;;;;;;;62.57;26.20;;;8.80;99.90;;;;;;5057367;28;20199;-79
2022/11/29 02:22:51;;;;;;;61.20;26.57;;;8.80;99.90;;;;;;5055951;28;20179;-79
2022/11/29 02:25:53;;;;;;;69.47;26.33;;;8.80;99.90;;;;;;5057008;28;20199;-79
2022/11/29 02:28:41;;;;;;;72.17;28.57;;;8.80;99.90;;;;;;5057206;28;20203;-78
2022/11/29 02:31:42;;;;;;;67.87;28.20;;;8.80;99.90;;;;;;5056017;28;20611;-79
2022/11/29 02:34:31;;;;;;;61.87;26.40;;;8.80;99.90;;;;;;5056257;28;20171;-78
2022/11/29 02:37:28;;;;;;;61.63;26.97;;;8.80;99.90;;;;;;5056091;28;20650;-79
2022/11/29 02:40:27;;;;;;;66.23;27.03;;;8.80;99.90;;;;;;5048673;28;20218;-78
2022/11/29 02:43:16;;;;;;;76.13;29.37;;;8.80;99.90;;;;;;5057912;28;20199;-78
2022/11/29 02:46:00;;;;;;;71.20;28.57;;;8.80;99.90;;;;;;5056630;28;20171;-79
2022/11/29 02:48:46;;;;;;;72.87;30.10;;;8.80;99.90;;;;;;5059933;28;20189;-79
2022/11/29 02:51:22;;;;;;;77.20;29.07;;;8.80;99.90;;;;;;5058317;28;20737;-80
2022/11/29 02:54:20;;;;;;;83.47;30.60;;;8.80;99.90;;;;;;5055812;28;20622;-79
2022/11/29 02:56:54;;;;;;;84.93;31.07;;;8.80;99.90;;;;;;5055878;28;20623;-79
2022/11/29 02:59:55;;;;;;;77.03;29.20;;;8.80;99.90;;;;;;5054679;28;20709;-79
2022/11/29 03:02:33;;;;;;;71.80;29.53;;;8.80;99.90;;;;;;5055914;28;20190;-78
2022/11/29 03:05:12;;;;;;;62.67;24.93;;;8.80;99.90;;;;;;5054462;28;20167;-79
2022/11/29 03:07:47;;;;;;;63.47;26.80;;;8.80;99.90;;;;;;5055686;28;20190;-78
2022/11/29 03:10:28;;;;;;;61.73;25.83;;;8.80;99.90;;;;;;5055099;28;20203;-79
2022/11/29 03:12:54;;;;;;;67.27;26.00;;;8.80;99.90;;;;;;5056128;28;20208;-78
2022/11/29 03:15:33;;;;;;;66.90;26.43;;;8.80;99.90;;;;;;5055803;28;20167;-79
2022/11/29 03:18:26;;;;;;;60.20;26.20;;;8.80;99.90;;;;;;5057004;28;20172;-79
2022/11/29 03:21:19;;;;;;;66.90;25.90;;;8.80;99.90;;;;;;5056093;28;20206;-79
2022/11/29 03:23:49;;;;;;;67.40;25.07;;;8.80;99.90;;;;;;5054895;28;20532;-78
2022/11/29 03:26:30;;;;;;;61.90;26.80;;;8.80;99.90;;;;;;5056597;28;20174;-79
2022/11/29 03:29:07;;;;;;;74.13;27.57;;;8.80;99.90;;;;;;5055126;28;20669;-78
2022/11/29 03:31:53;;;;;;;76.50;28.77;;;8.80;99.90;;;;;;5056228;28;20768;-78
2022/11/29 03:34:43;;;;;;;82.93;29.13;;;8.80;99.90;;;;;;5054691;28;20167;-78
2022/11/29 03:37:14;;;;;;;65.07;26.70;;;8.80;99.90;;;;;;5057177;28;20679;-79
2022/11/29 03:39:43;;;;;;;90.37;31.77;;;8.80;99.90;;;;;;5055172;28;20590;-78
2022/11/29 03:42:26;;;;;;;82.77;30.13;;;8.80;99.90;;;;;;5055559;28;20180;-79
2022/11/29 03:45:09;;;;;;;94.77;31.67;;;8.80;99.90;;;;;;5056900;28;20223;-78
2022/11/29 03:47:57;;;;;;;86.67;30.93;;;8.80;99.90;;;;;;5054983;28;20692;-78
2022/11/29 03:50:31;;;;;;;95.20;31.10;;;8.80;99.90;;;;;;5046291;28;20210;-78
2022/11/29 03:53:13;;;;;;;103.47;34.33;;;8.80;99.90;;;;;;5057123;28;20191;-79
2022/11/29 03:55:59;;;;;;;102.67;34.17;;;8.80;99.90;;;;;;5058282;28;20167;-78
2022/11/29 03:59:00;;;;;;;112.83;36.67;;;8.80;99.90;;;;;;5059416;28;20183;-79
2022/11/29 04:01:55;;;;;;;100.23;33.37;;;8.80;99.90;;;;;;4993903;28;20260;-79
2022/11/29 04:04:33;;;;;;;104.60;34.60;;;8.80;99.90;;;;;;5053597;28;20215;-79
2022/11/29 04:07:34;;;;;;;111.57;35.80;;;8.80;99.90;;;;;;5055529;28;20549;-79
2022/11/29 04:10:18;;;;;;;111.57;33.63;;;8.80;99.90;;;;;;5055343;28;20214;-79
2022/11/29 04:13:29;;;;;;;124.90;36.23;;;8.80;99.90;;;;;;5056558;28;20156;-79
2022/11/29 04:16:10;;;;;;;104.97;34.00;;;8.80;99.90;;;;;;5047156;28;20192;-79
2022/11/29 04:19:10;;;;;;;112.13;34.30;;;8.80;99.90;;;;;;5055480;28;20514;-78
2022/11/29 04:22:06;;;;;;;111.70;34.40;;;8.80;99.90;;;;;;5012528;28;20546;-79
2022/11/29 04:24:55;;;;;;;93.80;33.13;;;8.80;99.90;;;;;;5055841;28;20167;-79
2022/11/29 04:27:48;;;;;;;108.27;32.90;;;8.70;99.90;;;;;;5055602;28;20330;-79
2022/11/29 04:30:29;;;;;;;94.53;31.67;;;8.70;99.90;;;;;;5056103;28;20237;-79
2022/11/29 04:33:34;;;;;;;107.87;32.30;;;8.70;99.90;;;;;;5056006;28;20164;-79
2022/11/29 04:36:15;;;;;;;116.37;33.63;;;8.70;99.90;;;;;;5055482;28;20224;-78
2022/11/29 04:38:55;;;;;;;98.70;31.80;;;8.70;99.90;;;;;;5055160;28;20175;-79
2022/11/29 04:41:57;;;;;;;87.13;29.60;;;8.70;99.90;;;;;;5055032;28;20286;-78
2022/11/29 04:44:45;;;;;;;87.13;30.10;;;8.70;99.90;;;;;;5054207;28;20609;-79
2022/11/29 04:47:22;;;;;;;91.50;29.57;;;8.70;99.90;;;;;;5057938;28;20191;-79
2022/11/29 04:50:03;;;;;;;102.13;32.33;;;8.60;99.90;;;;;;5059813;28;20195;-79
2022/11/29 04:52:47;;;;;;;85.73;29.13;;;8.60;99.90;;;;;;5060064;28;20164;-79
2022/11/29 04:55:50;;;;;;;104.93;30.70;;;8.60;99.90;;;;;;5058748;28;20700;-79
2022/11/29 04:58:48;;;;;;;82.77;27.93;;;8.60;99.90;;;;;;5059867;28;20179;-79
2022/11/29 05:01:49;;;;;;;74.13;27.27;;;8.60;99.90;;;;;;5058190;28;20203;-78
2022/11/29 05:04:24;;;;;;;79.10;26.00;;;8.60;99.90;;;;;;4998159;28;20722;-78
2022/11/29 05:07:31;;;;;;;85.80;28.10;;;8.60;99.90;;;;;;5052116;28;20301;-79
2022/11/29 05:10:06;;;;;;;89.87;28.47;;;8.60;99.90;;;;;;5058980;28;20214;-79
2022/11/29 05:12:41;;;;;;;91.87;29.50;;;8.50;99.90;;;;;;5058690;28;20163;-78
2022/11/29 05:15:37;;;;;;;98.00;32.13;;;8.50;99.90;;;;;;5056598;28;20185;-78
2022/11/29 05:18:34;;;;;;;89.70;29.97;;;8.40;99.90;;;;;;5056143;28;20614;-77
2022/11/29 05:21:35;;;;;;;86.10;29.53;;;8.50;99.90;;;;;;5056037;28;20302;-78
2022/11/29 05:24:25;;;;;;;98.40;30.33;;;8.40;99.90;;;;;;5054604;28;20187;-78
2022/11/29 05:27:27;;;;;;;94.73;30.40;;;8.50;99.90;;;;;;5055848;28;20195;-77
2022/11/29 05:30:06;;;;;;;90.40;29.47;;;8.40;99.90;;;;;;5055525;28;20226;-77
2022/11/29 05:32:44;;;;;;;91.73;30.40;;;8.40;99.90;;;;;;5057186;28;20168;-78
2022/11/29 05:35:48;;;;;;;104.80;30.33;;;8.40;99.90;;;;;;5058657;28;20246;-78
2022/11/29 05:38:17;;;;;;;104.77;30.80;;;8.40;99.90;;;;;;5055372;28;20176;-78
2022/11/29 05:40:58;;;;;;;95.47;30.50;;;8.40;99.90;;;;;;5055074;28;20195;-76
2022/11/29 05:43:43;;;;;;;105.57;30.93;;;8.40;99.90;;;;;;5054452;28;20701;-76
2022/11/29 05:46:28;;;;;;;103.73;32.47;;;8.40;99.90;;;;;;5053769;28;20561;-76
2022/11/29 05:49:09;;;;;;;104.30;31.57;;;8.40;99.90;;;;;;5055139;28;20168;-77
2022/11/29 05:51:37;;;;;;;99.70;29.80;;;8.30;99.90;;;;;;5053565;28;20203;-78
2022/11/29 05:54:16;;;;;;;102.17;32.60;;;8.40;99.90;;;;;;5054806;28;20174;-76
2022/11/29 05:57:05;;;;;;;88.07;29.20;;;8.40;99.90;;;;;;5053217;28;20176;-77
2022/11/29 05:59:35;;;;;;;88.87;27.73;;;8.30;99.90;;;;;;5054225;28;20221;-78
2022/11/29 06:02:21;;;;;;;86.53;28.70;;;8.30;99.90;;;;;;5053859;28;20543;-77
2022/11/29 06:05:11;;;;;;;85.50;28.47;;;8.30;99.90;;;;;;5053639;28;20265;-78
2022/11/29 06:07:37;;;;;;;89.90;29.67;;;8.30;99.90;;;;;;5059007;28;20188;-77
2022/11/29 06:10:16;;;;;;;111.03;32.63;;;8.30;99.90;;;;;;5056629;28;20689;-76
2022/11/29 06:12:47;;;;;;;112.00;34.23;;;8.30;99.90;;;;;;5055366;28;20580;-77
2022/11/29 06:15:42;;;;;;;108.43;33.00;;;8.30;99.90;;;;;;5054980;28;20191;-77
2022/11/29 06:18:26;;;;;;;109.03;32.60;;;8.20;99.90;;;;;;5055104;28;20157;-77
2022/11/29 06:21:15;;;;;;;124.80;34.47;;;8.20;99.90;;;;;;5055211;28;20269;-77
2022/11/29 06:23:57;;;;;;;121.20;33.27;;;8.20;99.90;;;;;;5054456;28;20162;-76
2022/11/29 06:26:29;;;;;;;129.53;34.33;;;8.20;99.90;;;;;;5054311;28;20653;-77
2022/11/29 06:29:35;;;;;;;121.13;35.47;;;8.20;99.90;;;;;;5054426;28;20164;-77
2022/11/29 06:32:27;;;;;;;114.80;33.53;;;8.10;99.90;;;;;;5055031;28;20152;-77
2022/11/29 06:35:19;;;;;;;119.77;32.90;;;8.10;99.90;;;;;;5042310;28;20179;-77
2022/11/29 06:37:49;;;;;;;109.90;32.60;;;8.10;99.90;;;;;;5044995;28;20183;-76
2022/11/29 06:40:15;;;;;;;107.83;31.43;;;8.10;99.90;;;;;;5054026;28;20572;-77
2022/11/29 06:42:41;;;;;;;110.60;31.33;;;8.10;99.90;;;;;;5053920;28;20172;-76
2022/11/29 06:45:11;;;;;;;105.40;29.53;;;8.10;99.90;;;;;;5053525;28;20180;-78
2022/11/29 06:47:44;;;;;;;117.60;32.47;;;8.10;99.90;;;;;;5056880;28;20203;-78
2022/11/29 06:50:39;;;;;;;119.67;32.87;;;8.10;99.90;;;;;;5054264;28;20195;-77
2022/11/29 06:53:42;;;;;;;123.93;31.37;;;8.10;99.90;;;;;;5052305;28;20186;-76
2022/11/29 06:56:25;;;;;;;112.13;29.53;;;8.10;99.90;;;;;;5053417;28;20235;-77
2022/11/29 06:59:20;;;;;;;104.13;30.37;;;8.10;99.90;;;;;;5052280;28;20170;-76
2022/11/29 07:02:12;;;;;;;103.17;29.13;;;8.20;99.90;;;;;;4966389;28;20182;-75
2022/11/29 07:05:05;;;;;;;127.23;31.20;;;8.10;99.90;;;;;;5052259;28;20190;-76
2022/11/29 07:07:33;;;;;;;108.60;30.10;;;8.10;99.90;;;;;;5052510;28;20187;-75
2022/11/29 07:10:01;;;;;;;119.87;30.10;;;8.10;99.90;;;;;;5053004;28;20302;-76
2022/11/29 07:12:27;;;;;;;116.37;30.67;;;8.10;99.90;;;;;;5053160;28;20207;-76
2022/11/29 07:14:53;;;;;;;115.50;30.20;;;8.10;99.90;;;;;;5051694;28;20237;-76
2022/11/29 07:17:38;;;;;;;111.13;30.30;;;8.10;99.90;;;;;;5052942;28;20602;-76
2022/11/29 07:20:22;;;;;;;91.00;28.77;;;8.10;99.90;;;;;;5051717;28;20253;-76
2022/11/29 07:23:09;;;;;;;115.13;29.73;;;8.10;99.90;;;;;;5051647;28;20175;-76
2022/11/29 07:25:40;;;;;;;117.43;29.80;;;8.10;99.90;;;;;;5053574;28;20164;-75
2022/11/29 07:28:33;;;;;;;106.90;26.30;;;8.10;99.90;;;;;;5053331;28;20190;-76
2022/11/29 07:31:07;;;;;;;109.30;27.07;;;8.10;99.90;;;;;;5053245;28;20195;-76
2022/11/29 07:34:04;;;;;;;97.47;25.87;;;8.20;99.90;;;;;;5051671;28;20194;-76
2022/11/29 07:36:55;;;;;;;91.80;26.70;;;8.20;99.90;;;;;;5053105;28;20156;-75
2022/11/29 07:40:02;;;;;;;99.00;27.40;;;8.20;99.90;;;;;;5051646;28;20209;-76
2022/11/29 07:42:57;;;;;;;101.93;26.67;;;8.20;99.90;;;;;;5025864;28;20183;-75
2022/11/29 07:45:28;;;;;;;100.93;26.47;;;8.20;99.90;;;;;;5052997;28;20521;-75
2022/11/29 07:47:54;;;;;;;103.73;28.37;;;8.20;99.90;;;;;;5052969;28;20192;-76
2022/11/29 07:50:20;;;;;;;102.40;27.37;;;8.20;99.90;;;;;;5051447;28;20286;-75
2022/11/29 07:52:47;;;;;;;107.83;30.40;;;8.20;99.90;;;;;;5053118;28;20172;-76
2022/11/29 07:55:14;;;;;;;118.63;32.63;;;8.20;99.90;;;;;;5051598;28;20172;-75
2022/11/29 07:57:39;;;;;;;111.23;30.70;;;8.20;99.90;;;;;;5052712;28;20202;-75
2022/11/29 08:00:06;;;;;;;117.83;31.27;;;8.20;99.90;;;;;;5051391;28;20223;-74
2022/11/29 08:02:31;;;;;;;126.40;33.47;;;8.20;99.90;;;;;;5051388;28;20186;-75
2022/11/29 08:04:57;;;;;;;116.83;32.90;;;8.10;99.90;;;;;;5052637;28;20184;-74
2022/11/29 08:07:23;;;;;;;114.50;32.30;;;8.10;99.90;;;;;;5052467;28;20213;-75
2022/11/29 08:09:49;;;;;;;129.03;34.03;;;8.10;99.90;;;;;;5051123;28;20685;-75
2022/11/29 08:12:15;;;;;;;125.00;30.23;;;8.10;99.90;;;;;;5052436;28;20661;-75
2022/11/29 08:14:40;;;;;;;127.30;34.43;;;8.00;99.90;;;;;;5051088;28;20209;-75
2022/11/29 08:17:06;;;;;;;120.97;32.23;;;8.00;99.90;;;;;;5052317;28;20260;-75
2022/11/29 08:19:31;;;;;;;131.90;32.43;;;8.00;99.90;;;;;;5052538;28;20183;-75
2022/11/29 08:21:57;;;;;;;139.27;35.40;;;8.10;99.90;;;;;;5056365;28;20180;-76
2022/11/29 08:24:22;;;;;;;127.87;33.50;;;8.10;99.90;;;;;;5055339;28;20186;-76
2022/11/29 08:26:48;;;;;;;126.47;32.90;;;8.00;99.90;;;;;;5056523;28;20198;-75
2022/11/29 08:29:14;;;;;;;151.77;35.37;;;8.10;99.90;;;;;;5056551;28;20168;-75
2022/11/29 08:31:39;;;;;;;124.20;34.20;;;8.10;99.90;;;;;;5055290;28;20175;-76
2022/11/29 08:34:06;;;;;;;134.13;34.03;;;8.10;99.90;;;;;;5056450;28;20172;-75
2022/11/29 08:36:32;;;;;;;133.80;34.07;;;8.10;99.90;;;;;;5055213;28;20592;-75
2022/11/29 08:39:00;;;;;;;125.03;34.30;;;8.10;99.90;;;;;;5055225;28;20172;-76
2022/11/29 08:41:26;;;;;;;115.60;30.87;;;8.10;99.90;;;;;;5056380;28;20183;-76
2022/11/29 08:43:51;;;;;;;133.87;33.33;;;8.10;99.90;;;;;;5055126;28;20258;-76
2022/11/29 08:46:17;;;;;;;125.67;35.93;;;8.10;99.90;;;;;;5056613;28;20725;-76
2022/11/29 08:48:42;;;;;;;112.87;30.97;;;8.10;99.90;;;;;;5054988;28;20167;-76
2022/11/29 08:51:08;;;;;;;124.77;32.20;;;8.10;99.90;;;;;;5056173;28;20273;-76
2022/11/29 08:53:44;;;;;;;139.73;36.93;;;8.10;99.90;;;;;;5056185;28;20645;-76
2022/11/29 08:56:17;;;;;;;120.90;33.03;;;8.10;99.90;;;;;;5056492;28;20151;-76
2022/11/29 08:58:43;;;;;;;119.97;32.07;;;8.10;99.90;;;;;;5056365;28;20151;-77
2022/11/29 09:01:17;;;;;;;118.10;31.43;;;8.20;99.90;;;;;;5056134;28;20191;-77
2022/11/29 09:03:58;;;;;;;114.77;31.90;;;8.20;99.90;;;;;;5055867;28;20276;-76
2022/11/29 09:06:32;;;;;;;115.50;29.67;;;8.20;99.90;;;;;;5056181;28;20179;-76
2022/11/29 09:08:59;;;;;;;103.53;29.97;;;8.20;99.90;;;;;;5056052;28;20167;-76
2022/11/29 09:11:26;;;;;;;104.90;27.77;;;8.20;99.90;;;;;;5055636;28;20230;-76
2022/11/29 09:13:57;;;;;;;106.73;29.30;;;8.20;99.90;;;;;;5055791;28;20208;-76
2022/11/29 09:16:25;;;;;;;106.23;29.47;;;8.20;99.90;;;;;;5056059;28;20163;-76
2022/11/29 09:18:53;;;;;;;102.60;29.47;;;8.20;99.90;;;;;;5055894;28;20537;-76
2022/11/29 09:21:19;;;;;;;104.13;28.67;;;8.20;99.90;;;;;;5055512;28;20191;-76
2022/11/29 09:23:45;;;;;;;112.50;28.37;;;8.30;99.90;;;;;;5055588;28;20159;-76
2022/11/29 09:26:16;;;;;;;104.67;26.83;;;8.30;99.90;;;;;;5055797;28;20221;-76
2022/11/29 09:28:41;;;;;;;95.77;25.23;;;8.30;99.90;;;;;;5054180;28;20663;-75
2022/11/29 09:31:12;;;;;;;98.10;24.90;;;8.30;99.90;;;;;;5053206;28;20283;-76
2022/11/29 09:33:38;;;;;;;97.80;25.90;;;8.30;99.90;;;;;;5055408;28;20164;-76
2022/11/29 09:36:05;;;;;;;95.03;24.13;;;8.30;99.90;;;;;;5055370;28;20546;-76
2022/11/29 09:38:32;;;;;;;98.67;26.23;;;8.30;99.90;;;;;;5053923;28;20176;-76
2022/11/29 09:41:13;;;;;;;93.60;25.73;;;8.40;99.90;;;;;;5054959;28;20200;-76
2022/11/29 09:44:14;;;;;;;102.50;25.67;;;8.40;99.90;;;;;;5053689;28;20176;-76
2022/11/29 09:46:59;;;;;;;101.60;25.33;;;8.50;99.90;;;;;;5043937;28;20294;-76
2022/11/29 09:49:48;;;;;;;87.93;22.30;;;8.50;99.90;;;;;;5055141;28;20618;-76
2022/11/29 09:52:41;;;;;;;101.40;25.73;;;8.50;99.90;;;;;;5055039;28;20221;-75
2022/11/29 09:55:45;;;;;;;90.37;23.53;;;8.50;99.90;;;;;;5054647;28;20171;-76
2022/11/29 09:58:19;;;;;;;78.53;22.43;;;8.60;99.90;;;;;;5055222;28;20191;-76
2022/11/29 10:00:50;;;;;;;85.80;24.07;;;8.60;99.90;;;;;;5054619;28;20192;-76
2022/11/29 10:03:55;;;;;;;85.50;25.23;;;8.60;99.90;;;;;;5053505;28;20647;-76
2022/11/29 10:06:39;;;;;;;86.07;23.57;;;8.60;99.90;;;;;;4993429;28;20269;-76
2022/11/29 10:09:26;;;;;;;78.77;23.13;;;8.50;99.90;;;;;;5049470;28;20669;-76
2022/11/29 10:12:12;;;;;;;80.70;22.27;;;8.60;99.90;;;;;;5054582;28;20172;-76
2022/11/29 10:14:59;;;;;;;76.63;20.93;;;8.60;99.90;;;;;;5053142;28;20175;-76
2022/11/29 10:17:35;;;;;;;76.07;22.07;;;8.60;99.90;;;;;;5054717;28;20156;-76
2022/11/29 10:20:13;;;;;;;73.20;20.93;;;8.50;99.90;;;;;;5053114;28;20290;-76
2022/11/29 10:22:48;;;;;;;85.87;22.43;;;8.50;99.90;;;;;;5054425;28;20626;-76
2022/11/29 10:25:25;;;;;;;74.77;20.83;;;8.60;99.90;;;;;;5054570;28;20618;-76
2022/11/29 10:27:51;;;;;;;75.20;22.07;;;8.60;99.90;;;;;;5054726;28;20179;-76
2022/11/29 10:30:17;;;;;;;75.40;22.70;;;8.60;99.90;;;;;;5054172;28;20188;-76
2022/11/29 10:32:45;;;;;;;78.13;23.80;;;8.60;99.90;;;;;;5054079;28;20186;-76
2022/11/29 10:35:17;;;;;;;81.10;22.27;;;8.60;99.90;;;;;;5054337;28;20164;-76
2022/11/29 10:37:43;;;;;;;75.53;22.10;;;8.60;99.90;;;;;;5054082;28;20176;-76
2022/11/29 10:40:14;;;;;;;70.80;22.13;;;8.60;99.90;;;;;;5053852;28;20244;-76
2022/11/29 10:42:50;;;;;;;79.17;23.33;;;8.50;99.90;;;;;;5052927;28;20712;-76
2022/11/29 10:45:28;;;;;;;79.53;24.30;;;8.60;99.90;;;;;;5052631;28;20234;-76
2022/11/29 10:48:00;;;;;;;69.97;22.70;;;8.60;99.90;;;;;;5054211;28;20191;-76
2022/11/29 10:50:30;;;;;;;85.27;25.63;;;8.60;99.90;;;;;;5053990;28;20198;-76
2022/11/29 10:53:05;;;;;;;77.63;24.03;;;8.60;99.90;;;;;;5052501;28;20263;-76
2022/11/29 10:55:38;;;;;;;77.30;22.97;;;8.50;99.90;;;;;;5053736;28;20520;-76
2022/11/29 10:58:10;;;;;;;75.40;22.90;;;8.50;99.90;;;;;;5052431;28;20171;-76
2022/11/29 11:00:53;;;;;;;77.83;23.93;;;8.50;99.90;;;;;;5052287;28;20198;-76
2022/11/29 11:03:39;;;;;;;73.47;23.37;;;8.50;99.90;;;;;;5053872;28;20163;-76
2022/11/29 11:06:18;;;;;;;79.27;24.93;;;8.50;99.90;;;;;;5053794;28;20392;-76
2022/11/29 11:08:47;;;;;;;86.83;22.90;;;8.60;99.90;;;;;;5053507;28;20232;-75
2022/11/29 11:11:13;;;;;;;68.03;23.60;;;8.60;99.90;;;;;;5053246;28;20202;-76
2022/11/29 11:13:40;;;;;;;71.87;23.57;;;8.60;99.90;;;;;;5053407;28;20179;-75
2022/11/29 11:16:17;;;;;;;75.97;24.47;;;8.60;99.90;;;;;;5053457;28;20168;-76
2022/11/29 11:18:45;;;;;;;78.60;24.87;;;8.60;99.90;;;;;;5053610;28;20159;-76
2022/11/29 11:21:14;;;;;;;85.67;27.67;;;8.60;99.90;;;;;;5053351;28;20201;-76
2022/11/29 11:23:52;;;;;;;87.03;24.27;;;8.70;99.90;;;;;;5051721;28;20183;-75
2022/11/29 11:26:18;;;;;;;81.27;24.67;;;8.60;99.90;;;;;;5053698;28;20159;-76
2022/11/29 11:28:58;;;;;;;86.33;25.80;;;8.60;99.90;;;;;;5053225;28;20209;-76
2022/11/29 11:31:49;;;;;;;86.87;23.83;;;8.60;99.90;;;;;;5053083;28;20206;-76
2022/11/29 11:34:33;;;;;;;80.13;24.67;;;8.60;99.90;;;;;;5051934;28;20172;-76
2022/11/29 11:37:13;;;;;;;84.10;24.40;;;8.60;99.90;;;;;;5053083;28;20159;-76
2022/11/29 11:39:43;;;;;;;90.10;25.33;;;8.60;99.90;;;;;;5051601;28;20202;-75
2022/11/29 11:44:56;;;;;;;79.30;25.13;;;8.60;99.90;;;;;;5053212;28;20170;-76
2022/11/29 11:47:29;;;;;;;76.80;24.03;;;8.60;99.90;;;;;;5052797;28;20192;-75
2022/11/29 11:50:03;;;;;;;63.83;21.63;;;8.60;99.90;;;;;;5052848;28;20191;-76
2022/11/29 11:52:51;;;;;;;69.53;25.63;;;8.60;99.90;;;;;;5051539;28;20175;-75
2022/11/29 11:55:39;;;;;;;67.97;24.47;;;8.60;99.90;;;;;;5052518;28;20219;-76
2022/11/29 11:58:10;;;;;;;77.53;24.73;;;8.70;99.90;;;;;;5053043;28;20240;-75
2022/11/29 12:00:50;;;;;;;71.60;25.83;;;8.70;99.90;;;;;;5052735;28;20183;-75
2022/11/29 12:03:28;;;;;;;70.27;24.70;;;8.70;99.90;;;;;;5053267;28;20196;-76
2022/11/29 12:06:04;;;;;;;78.37;26.47;;;8.70;99.90;;;;;;5055047;28;20583;-77
2022/11/29 12:08:31;;;;;;;68.00;23.17;;;8.70;99.90;;;;;;5052460;28;20180;-77
2022/11/29 12:11:02;;;;;;;79.60;25.67;;;8.70;99.90;;;;;;5052603;28;20290;-78
2022/11/29 12:13:32;;;;;;;71.77;24.43;;;8.70;99.90;;;;;;5053459;28;20160;-77
2022/11/29 12:16:04;;;;;;;63.37;24.63;;;8.60;99.90;;;;;;5052441;28;20163;-77
2022/11/29 12:18:43;;;;;;;63.93;23.77;;;8.70;99.90;;;;;;5051119;28;20183;-77
2022/11/29 12:21:16;;;;;;;69.13;24.00;;;8.70;99.90;;;;;;5051281;28;20218;-77
2022/11/29 12:24:02;;;;;;;57.07;23.10;;;8.80;99.90;;;;;;5052403;28;20172;-77
2022/11/29 12:26:35;;;;;;;57.53;21.83;;;8.80;99.90;;;;;;5052143;28;20697;-78
2022/11/29 12:29:01;;;;;;;66.47;24.70;;;8.80;99.90;;;;;;5053123;28;20642;-78
2022/11/29 12:31:43;;;;;;;61.80;23.83;;;8.80;99.90;;;;;;5053657;28;20195;-78
2022/11/29 12:34:38;;;;;;;64.30;25.83;;;8.80;99.90;;;;;;5053648;28;20156;-77
2022/11/29 12:37:25;;;;;;;62.57;24.63;;;8.80;99.90;;;;;;5053474;28;20195;-79
2022/11/29 12:40:03;;;;;;;65.97;23.93;;;8.90;99.90;;;;;;5051436;28;20632;-78
2022/11/29 12:43:05;;;;;;;64.47;24.27;;;8.90;99.90;;;;;;5051304;28;20199;-79
2022/11/29 12:46:00;;;;;;;71.23;25.33;;;8.80;99.90;;;;;;5052188;28;20233;-79
2022/11/29 12:48:50;;;;;;;59.00;24.63;;;8.80;99.90;;;;;;5038146;28;20227;-77
2022/11/29 12:51:24;;;;;;;61.23;25.37;;;8.80;99.90;;;;;;5051686;28;20281;-78
2022/11/29 12:54:05;;;;;;;70.10;25.00;;;8.80;99.90;;;;;;5053878;28;20155;-78
2022/11/29 12:56:59;;;;;;;68.40;23.57;;;8.80;99.90;;;;;;5053790;28;20160;-79
2022/11/29 12:59:57;;;;;;;64.10;23.13;;;8.80;99.90;;;;;;5054108;28;20167;-78
2022/11/29 13:02:41;;;;;;;70.13;25.17;;;8.80;99.90;;;;;;5054108;28;20242;-79
2022/11/29 13:05:38;;;;;;;68.70;25.20;;;8.70;99.90;;;;;;5054572;28;20336;-79
2022/11/29 13:08:15;;;;;;;61.57;24.20;;;8.70;99.90;;;;;;5055960;28;20282;-78
2022/11/29 13:10:54;;;;;;;59.07;24.77;;;8.70;99.90;;;;;;5054891;28;20760;-78
2022/11/29 13:13:31;;;;;;;69.00;23.37;;;8.70;99.90;;;;;;5057012;28;20152;-78
2022/11/29 13:16:21;;;;;;;61.83;23.93;;;8.70;99.90;;;;;;5057622;28;20189;-79
2022/11/29 13:19:06;;;;;;;68.10;24.27;;;8.70;99.90;;;;;;5058018;28;20657;-79
2022/11/29 13:21:57;;;;;;;61.03;23.40;;;8.70;99.90;;;;;;5058466;28;20248;-79
2022/11/29 13:24:34;;;;;;;67.90;22.80;;;8.70;99.90;;;;;;5058659;28;20160;-79
2022/11/29 13:27:03;;;;;;;57.00;24.37;;;8.70;99.90;;;;;;5058949;28;20257;-79
2022/11/29 13:29:29;;;;;;;61.70;25.30;;;8.70;99.90;;;;;;5058904;28;20534;-79
2022/11/29 13:31:56;;;;;;;61.73;23.90;;;8.70;99.90;;;;;;5056863;28;20175;-79